createdAt,value
2022-08-03T00:00:45.498Z,78492.72
2022-08-03T00:03:14.921Z,78494.94
2022-08-03T00:06:04.466Z,78513.91
2022-08-03T00:08:40.183Z,78515.13
2022-08-03T00:11:10.128Z,78510.47
2022-08-03T00:13:39.889Z,78514.38
2022-08-03T00:16:09.811Z,78506.66
2022-08-03T00:18:39.969Z,78513.16
2022-08-03T00:21:09.610Z,78520.88
2022-08-03T00:23:52.357Z,78528.38
2022-08-03T00:26:23.257Z,78530.13
2022-08-03T00:28:53.192Z,78517.69
2022-08-03T00:31:26.467Z,78512.09
2022-08-03T00:34:10.742Z,78528.00
2022-08-03T00:36:42.621Z,78533.13
2022-08-03T00:39:12.193Z,78524.38
2022-08-03T00:41:41.913Z,78535.72
2022-08-03T00:44:11.523Z,78530.25
2022-08-03T00:46:41.247Z,78543.38
2022-08-03T00:49:10.423Z,78541.13
2022-08-03T00:51:40.280Z,78543.47
2022-08-03T00:54:09.135Z,78552.78
2022-08-03T00:56:39.643Z,78552.03
2022-08-03T00:59:31.415Z,78554.28
2022-08-03T01:02:00.929Z,78544.34
2022-08-03T01:04:29.847Z,78555.66
2022-08-03T01:07:37.885Z,78553.50
2022-08-03T01:10:25.596Z,78554.50
2022-08-03T01:14:01.313Z,78552.00
2022-08-03T01:16:10.911Z,78551.94
2022-08-03T01:18:55.074Z,78554.91
2022-08-03T01:21:37.116Z,78567.78
2022-08-03T01:24:17.175Z,78566.63
2022-08-03T01:27:09.201Z,78558.13
2022-08-03T01:30:14.240Z,78555.94
2022-08-03T01:33:27.336Z,78552.91
2022-08-03T01:36:03.704Z,78549.69
2022-08-03T01:38:43.309Z,78555.72
2022-08-03T01:41:17.812Z,78558.19
2022-08-03T01:44:27.004Z,78568.78
2022-08-03T01:46:47.632Z,78563.91
2022-08-03T01:49:19.539Z,78570.56
2022-08-03T01:52:04.033Z,78569.34
2022-08-03T01:54:39.418Z,78558.22
2022-08-03T01:57:11.282Z,78569.66
2022-08-03T01:59:42.295Z,78563.59
2022-08-03T02:02:33.217Z,78579.72
2022-08-03T02:05:10.679Z,78578.13
2022-08-03T02:07:44.100Z,78582.34
2022-08-03T02:10:34.782Z,78585.69
2022-08-03T02:13:11.267Z,78587.34
2022-08-03T02:15:42.720Z,78586.16
2022-08-03T02:18:14.032Z,78590.03
2022-08-03T02:20:45.882Z,78593.28
2022-08-03T02:23:20.403Z,78578.97
2022-08-03T02:26:00.094Z,78596.53
2022-08-03T02:28:37.293Z,78596.63
2022-08-03T02:31:13.106Z,78600.34
2022-08-03T02:33:51.951Z,78612.75
2022-08-03T02:36:31.446Z,78614.97
2022-08-03T02:39:04.702Z,78613.25
2022-08-03T02:41:39.648Z,78617.72
2022-08-03T02:44:14.700Z,78622.16
2022-08-03T02:46:48.378Z,78621.75
2022-08-03T02:49:41.037Z,78615.25
2022-08-03T02:52:17.015Z,78620.28
2022-08-03T02:54:50.606Z,78624.31
2022-08-03T02:57:23.674Z,78643.78
2022-08-03T02:59:55.259Z,78635.72
2022-08-03T03:02:26.857Z,78628.78
2022-08-03T03:04:58.216Z,78611.47
2022-08-03T03:07:51.973Z,78631.91
2022-08-03T03:10:28.057Z,78629.66
2022-08-03T03:12:59.896Z,78634.75
2022-08-03T03:15:33.957Z,78642.88
2022-08-03T03:18:06.376Z,78642.91
2022-08-03T03:20:38.136Z,78631.66
2022-08-03T03:23:09.032Z,78633.59
2022-08-03T03:25:40.616Z,78645.38
2022-08-03T03:28:12.847Z,78636.03
2022-08-03T03:30:42.999Z,78651.84
2022-08-03T03:33:13.256Z,78632.44
2022-08-03T03:35:46.981Z,78627.50
2022-08-03T03:38:16.456Z,78637.25
2022-08-03T03:40:49.736Z,78643.75
2022-08-03T03:43:20.301Z,78627.38
2022-08-03T03:45:51.016Z,78639.75
2022-08-03T03:48:21.417Z,78628.66
2022-08-03T03:50:52.137Z,78619.66
2022-08-03T03:53:22.855Z,78623.97
2022-08-03T03:56:01.926Z,78630.81
2022-08-03T03:58:34.536Z,78648.38
2022-08-03T04:01:06.430Z,78607.41
2022-08-03T04:03:37.556Z,78663.06
2022-08-03T04:06:36.056Z,78663.44
2022-08-03T04:09:24.696Z,78666.03
2022-08-03T04:12:00.416Z,78654.97
2022-08-03T04:14:39.735Z,78662.34
2022-08-03T04:17:13.920Z,78650.13
2022-08-03T04:19:49.695Z,78671.00
2022-08-03T04:22:27.736Z,78676.88
2022-08-03T04:25:06.856Z,78677.47
2022-08-03T04:27:39.895Z,78664.13
2022-08-03T04:30:12.536Z,78674.44
2022-08-03T04:32:45.956Z,78677.34
2022-08-03T04:35:16.095Z,78678.66
2022-08-03T04:37:49.496Z,78680.41
2022-08-03T04:40:29.794Z,78668.38
2022-08-03T04:43:01.735Z,78679.38
2022-08-03T04:45:33.575Z,78673.00
2022-08-03T04:48:04.779Z,78687.06
2022-08-03T04:50:36.455Z,78684.38
2022-08-03T04:53:08.618Z,78689.59
2022-08-03T04:55:39.976Z,78673.06
2022-08-03T04:58:14.156Z,78672.50
2022-08-03T05:00:45.875Z,78696.50
2022-08-03T05:03:23.769Z,78687.75
2022-08-03T05:06:01.909Z,78686.53
2022-08-03T05:08:46.740Z,78689.09
2022-08-03T05:11:18.996Z,78685.53
2022-08-03T05:13:51.617Z,78695.59
2022-08-03T05:16:22.535Z,78698.22
2022-08-03T05:18:52.296Z,78693.44
2022-08-03T05:21:22.216Z,78693.31
2022-08-03T05:23:51.576Z,78686.63
2022-08-03T05:26:22.775Z,78723.19
2022-08-03T05:28:54.839Z,78728.25
2022-08-03T05:31:25.496Z,78724.91
2022-08-03T05:33:56.155Z,78707.53
2022-08-03T05:36:26.875Z,78717.41
2022-08-03T05:39:00.843Z,78714.94
2022-08-03T05:41:36.920Z,78714.63
2022-08-03T05:44:07.097Z,78714.91
2022-08-03T05:46:36.775Z,78688.03
2022-08-03T05:49:08.946Z,78706.00
2022-08-03T05:51:39.257Z,78695.25
2022-08-03T05:54:09.478Z,78692.38
2022-08-03T05:56:39.697Z,78713.03
2022-08-03T05:59:35.888Z,78711.63
2022-08-03T06:01:59.556Z,78706.03
2022-08-03T06:04:31.337Z,78687.84
2022-08-03T06:07:01.418Z,78700.19
2022-08-03T06:10:33.207Z,78690.25
2022-08-03T06:12:23.338Z,78679.25
2022-08-03T06:14:53.578Z,78703.81
2022-08-03T06:17:22.877Z,78713.00
2022-08-03T06:19:56.857Z,78710.34
2022-08-03T06:22:28.137Z,78680.56
2022-08-03T06:25:04.222Z,78703.56
2022-08-03T06:27:37.663Z,78711.56
2022-08-03T06:30:08.939Z,78707.25
2022-08-03T06:32:41.357Z,78705.59
2022-08-03T06:35:22.856Z,78702.78
2022-08-03T06:37:55.657Z,78680.13
2022-08-03T06:40:35.899Z,78691.84
2022-08-03T06:43:09.515Z,78703.34
2022-08-03T06:45:42.537Z,78708.94
2022-08-03T06:48:15.521Z,78700.28
2022-08-03T06:50:46.329Z,78688.19
2022-08-03T06:53:19.863Z,78711.88
2022-08-03T06:55:55.017Z,78709.28
2022-08-03T06:58:27.758Z,78703.28
2022-08-03T07:00:57.419Z,78699.13
2022-08-03T07:03:27.577Z,78697.31
2022-08-03T07:05:56.859Z,78707.22
2022-08-03T07:08:34.172Z,78707.63
2022-08-03T07:11:04.625Z,78710.63
2022-08-03T07:13:34.298Z,78716.03
2022-08-03T07:16:04.297Z,78707.38
2022-08-03T07:18:34.640Z,78690.81
2022-08-03T07:21:05.890Z,78689.91
2022-08-03T07:23:35.978Z,78712.97
2022-08-03T07:26:05.739Z,78683.78
2022-08-03T07:28:35.499Z,78689.75
2022-08-03T07:31:05.097Z,78714.56
2022-08-03T07:33:41.019Z,78659.47
2022-08-03T07:36:34.898Z,78708.19
2022-08-03T07:39:17.421Z,78692.06
2022-08-03T07:41:49.818Z,78687.69
2022-08-03T07:44:21.420Z,78680.72
2022-08-03T07:46:54.217Z,78698.88
2022-08-03T07:49:26.344Z,78686.91
2022-08-03T07:52:13.966Z,78670.97
2022-08-03T07:54:44.137Z,78678.28
2022-08-03T07:57:14.058Z,78689.72
2022-08-03T08:00:01.480Z,78684.09
2022-08-03T08:02:42.816Z,78691.53
2022-08-03T08:05:14.557Z,78660.56
2022-08-03T08:07:50.986Z,78680.91
2022-08-03T08:10:22.139Z,78690.28
2022-08-03T08:12:52.399Z,78651.25
2022-08-03T08:15:22.776Z,78678.59
2022-08-03T08:17:55.676Z,78676.38
2022-08-03T08:20:31.755Z,78664.25
2022-08-03T08:23:09.562Z,78662.63
2022-08-03T08:25:56.338Z,78656.69
2022-08-03T08:28:32.511Z,78665.00
2022-08-03T08:31:04.451Z,78651.25
2022-08-03T08:34:02.184Z,78638.59
2022-08-03T08:36:26.936Z,78639.25
2022-08-03T08:38:56.777Z,78648.22
2022-08-03T08:41:32.231Z,78614.38
2022-08-03T08:44:04.857Z,78647.53
2022-08-03T08:46:35.736Z,78662.09
2022-08-03T08:49:08.210Z,78649.31
2022-08-03T08:51:51.012Z,78639.50
2022-08-03T08:54:32.378Z,78653.66
2022-08-03T08:57:21.284Z,78643.16
2022-08-03T08:59:58.697Z,78640.78
2022-08-03T09:02:31.796Z,78638.97
2022-08-03T09:05:07.332Z,78655.13
2022-08-03T09:07:38.216Z,78658.91
2022-08-03T09:10:15.097Z,78635.25
2022-08-03T09:12:49.722Z,78637.84
2022-08-03T09:15:24.779Z,78639.41
2022-08-03T09:17:58.617Z,78653.44
2022-08-03T09:20:32.119Z,78650.50
2022-08-03T09:23:43.005Z,78608.97
2022-08-03T09:26:00.778Z,78608.19
2022-08-03T09:29:00.632Z,78627.81
2022-08-03T09:31:35.963Z,78628.44
2022-08-03T09:34:10.856Z,78596.25
2022-08-03T09:36:48.300Z,78627.47
2022-08-03T09:39:18.017Z,78630.91
2022-08-03T09:41:50.120Z,78629.16
2022-08-03T09:44:24.894Z,78619.31
2022-08-03T09:46:58.538Z,78615.63
2022-08-03T09:49:28.830Z,78598.44
2022-08-03T09:52:38.135Z,78616.97
2022-08-03T09:54:55.417Z,78630.69
2022-08-03T09:57:28.297Z,78627.34
2022-08-03T10:00:13.094Z,78628.19
2022-08-03T10:02:47.276Z,78627.25
2022-08-03T10:05:19.640Z,78620.22
2022-08-03T10:07:52.377Z,78625.16
2022-08-03T10:10:30.575Z,78591.38
2022-08-03T10:13:03.939Z,78612.47
2022-08-03T10:16:22.945Z,78612.31
2022-08-03T10:18:24.695Z,78606.78
2022-08-03T10:21:02.939Z,78626.97
2022-08-03T10:23:37.316Z,78624.16
2022-08-03T10:26:10.305Z,78551.00
2022-08-03T10:28:48.936Z,78606.31
2022-08-03T10:31:22.377Z,78577.44
2022-08-03T10:33:57.576Z,78623.28
2022-08-03T10:36:32.540Z,78582.91
2022-08-03T10:39:04.606Z,78595.34
2022-08-03T10:41:48.376Z,78610.66
2022-08-03T10:44:25.277Z,78601.50
2022-08-03T10:46:55.182Z,78622.47
2022-08-03T10:49:34.830Z,78616.97
2022-08-03T10:52:31.746Z,78609.72
2022-08-03T10:55:14.845Z,78611.50
2022-08-03T10:57:58.218Z,78586.31
2022-08-03T11:00:32.144Z,78616.34
2022-08-03T11:03:10.177Z,78616.00
2022-08-03T11:05:55.522Z,78606.81
2022-08-03T11:08:29.682Z,78586.16
2022-08-03T11:11:21.057Z,78600.53
2022-08-03T11:14:09.308Z,78592.28
2022-08-03T11:16:43.858Z,78586.53
2022-08-03T11:19:19.219Z,78595.19
2022-08-03T11:21:51.016Z,78588.25
2022-08-03T11:24:48.956Z,78594.25
2022-08-03T11:27:19.245Z,78597.91
2022-08-03T11:30:17.106Z,78597.25
2022-08-03T11:32:49.199Z,78604.69
2022-08-03T11:35:25.295Z,78592.13
2022-08-03T11:38:04.495Z,78593.75
2022-08-03T11:40:50.338Z,78591.94
2022-08-03T11:43:28.975Z,78596.00
2022-08-03T11:46:08.388Z,78600.19
2022-08-03T11:48:44.866Z,78601.19
2022-08-03T11:51:25.898Z,78611.78
2022-08-03T11:54:05.980Z,78609.41
2022-08-03T11:56:50.370Z,78601.97
2022-08-03T11:59:22.254Z,78605.84
2022-08-03T12:01:52.478Z,78613.44
2022-08-03T12:04:22.408Z,78588.09
2022-08-03T12:15:45.190Z,78558.72
2022-08-03T12:18:26.310Z,78576.78
2022-08-03T12:25:44.831Z,78573.38
2022-08-03T12:28:36.845Z,78569.97
2022-08-03T12:35:31.111Z,78554.25
2022-08-03T12:38:11.109Z,78563.84
2022-08-03T12:40:52.612Z,78559.59
2022-08-03T12:43:37.655Z,78556.16
2022-08-03T12:46:24.168Z,78558.28
2022-08-03T12:49:30.426Z,78544.34
2022-08-03T12:52:07.999Z,78544.28
2022-08-03T12:54:48.031Z,78523.41
2022-08-03T12:57:30.492Z,78508.69
2022-08-03T13:00:21.704Z,78535.75
2022-08-03T13:03:42.327Z,78541.69
2022-08-03T13:06:21.590Z,78541.69
2022-08-03T13:09:25.372Z,78534.19
2022-08-03T13:12:21.000Z,78515.66
2022-08-03T13:15:03.050Z,78547.00
2022-08-03T13:17:38.447Z,78541.16
2022-08-03T13:20:14.147Z,78545.84
2022-08-03T13:22:58.021Z,78544.53
2022-08-03T13:25:39.349Z,78546.16
2022-08-03T13:28:38.282Z,78518.88
2022-08-03T13:31:14.652Z,78551.97
2022-08-03T13:33:53.193Z,78483.09
2022-08-03T13:37:06.375Z,78536.13
2022-08-03T13:39:32.481Z,78507.88
2022-08-03T13:42:22.862Z,78539.78
2022-08-03T13:45:04.607Z,78533.78
2022-08-03T13:47:51.350Z,78540.63
2022-08-03T13:51:21.788Z,78539.50
2022-08-03T13:58:16.390Z,78530.34
2022-08-03T14:00:55.712Z,78542.06
2022-08-03T14:03:34.509Z,78511.31
2022-08-03T14:06:12.431Z,78520.00
2022-08-03T14:08:44.067Z,78527.34
2022-08-03T14:11:14.326Z,78528.88
2022-08-03T14:13:43.641Z,78497.59
2022-08-03T14:16:17.102Z,78513.03
2022-08-03T14:18:47.127Z,78476.91
2022-08-03T14:21:16.728Z,78513.16
2022-08-03T14:23:46.210Z,78431.59
2022-08-03T14:26:15.827Z,78506.25
2022-08-03T14:28:46.607Z,78502.81
2022-08-03T14:32:09.833Z,78523.13
2022-08-03T14:34:06.936Z,78475.88
2022-08-03T14:36:36.447Z,78510.59
2022-08-03T14:39:06.840Z,78515.91
2022-08-03T14:41:38.228Z,78515.03
2022-08-03T14:44:07.769Z,78507.56
2022-08-03T14:46:37.029Z,78510.56
2022-08-03T14:50:30.062Z,78496.19
2022-08-03T14:51:59.008Z,78499.88
2022-08-03T14:54:32.047Z,78514.25
2022-08-03T14:57:02.300Z,78486.22
2022-08-03T14:59:56.208Z,78519.00
2022-08-03T15:02:23.927Z,78510.31
2022-08-03T15:04:53.988Z,78503.94
2022-08-03T15:07:23.321Z,78531.56
2022-08-03T15:09:53.246Z,78524.09
2022-08-03T15:12:22.688Z,78465.03
2022-08-03T15:14:52.607Z,78528.69
2022-08-03T15:17:22.153Z,78500.09
2022-08-03T15:20:01.682Z,78517.94
2022-08-03T15:22:37.306Z,78539.09
2022-08-03T15:26:29.610Z,78531.06
2022-08-03T15:28:03.380Z,78448.56
2022-08-03T15:30:37.329Z,78534.84
2022-08-03T15:33:07.452Z,78528.13
2022-08-03T15:35:38.288Z,78547.16
2022-08-03T15:38:09.593Z,78511.97
2022-08-03T15:40:39.848Z,78534.56
2022-08-03T15:43:10.297Z,78541.56
2022-08-03T15:45:44.208Z,78547.16
2022-08-03T15:48:13.729Z,78546.06
2022-08-03T15:50:43.007Z,78538.88
2022-08-03T15:53:13.083Z,78519.56
2022-08-03T15:55:42.593Z,78518.81
2022-08-03T15:59:07.661Z,78555.66
2022-08-03T16:01:06.009Z,78550.75
2022-08-03T16:03:36.629Z,78553.44
2022-08-03T16:06:07.468Z,78532.31
2022-08-03T16:08:37.147Z,78543.75
2022-08-03T16:11:07.707Z,78549.66
2022-08-03T16:14:13.692Z,78546.47
2022-08-03T16:16:27.107Z,78550.91
2022-08-03T16:18:56.409Z,78549.38
2022-08-03T16:21:26.595Z,78559.31
2022-08-03T16:24:03.207Z,78557.59
2022-08-03T16:26:37.368Z,78570.06
2022-08-03T16:29:22.150Z,78543.47
2022-08-03T16:31:53.467Z,78570.19
2022-08-03T16:34:22.866Z,78539.84
2022-08-03T16:36:52.187Z,78534.44
2022-08-03T16:39:21.431Z,78568.09
2022-08-03T16:41:54.564Z,78548.03
2022-08-03T16:44:32.048Z,78563.25
2022-08-03T16:47:02.027Z,78559.59
2022-08-03T16:49:54.245Z,78568.72
2022-08-03T16:52:22.853Z,78569.13
2022-08-03T16:54:53.803Z,78532.63
2022-08-03T16:57:56.446Z,78593.25
2022-08-03T17:00:34.299Z,78597.72
2022-08-03T17:03:12.418Z,78577.44
2022-08-03T17:05:50.204Z,78588.25
2022-08-03T17:08:26.440Z,78594.38
2022-08-03T17:10:57.637Z,78561.09
2022-08-03T17:13:39.961Z,78603.81
2022-08-03T17:16:15.337Z,78592.72
2022-08-03T17:19:02.050Z,78596.69
2022-08-03T17:21:39.343Z,78601.59
2022-08-03T17:24:19.919Z,78619.19
2022-08-03T17:26:55.209Z,78597.22
2022-08-03T17:29:29.962Z,78621.25
2022-08-03T17:32:07.838Z,78609.84
2022-08-03T17:34:40.410Z,78625.00
2022-08-03T17:37:17.741Z,78626.03
2022-08-03T17:40:03.761Z,78605.19
2022-08-03T17:42:35.269Z,78615.59
2022-08-03T17:45:07.926Z,78628.13
2022-08-03T17:47:56.969Z,78592.38
2022-08-03T17:50:51.995Z,78615.94
2022-08-03T17:53:29.578Z,78626.66
2022-08-03T17:56:44.574Z,78626.16
2022-08-03T17:59:52.610Z,78648.38
2022-08-03T18:03:00.117Z,78644.34
2022-08-03T18:06:10.641Z,78627.50
2022-08-03T18:08:30.348Z,78630.69
2022-08-03T18:11:17.134Z,78614.34
2022-08-03T18:13:59.087Z,78641.41
2022-08-03T18:16:53.927Z,78651.84
2022-08-03T18:20:02.124Z,78639.09
2022-08-03T18:22:15.567Z,78655.50
2022-08-03T18:24:47.857Z,78659.13
2022-08-03T18:27:19.430Z,78614.09
2022-08-03T18:29:54.806Z,78650.47
2022-08-03T18:32:25.386Z,78627.94
2022-08-03T18:34:59.448Z,78653.81
2022-08-03T18:37:32.366Z,78658.38
2022-08-03T18:40:24.364Z,78670.75
2022-08-03T18:42:58.849Z,78632.44
2022-08-03T18:45:56.094Z,78617.91
2022-08-03T18:48:47.628Z,78657.72
2022-08-03T18:51:28.724Z,78656.31
2022-08-03T18:54:51.002Z,78642.75
2022-08-03T19:00:24.542Z,78672.94
2022-08-03T19:06:14.653Z,78678.56
2022-08-03T19:08:52.606Z,78679.88
2022-08-03T19:12:12.764Z,78678.56
2022-08-03T19:14:29.393Z,78667.75
2022-08-03T19:17:21.130Z,78639.00
2022-08-03T19:19:54.326Z,78676.81
2022-08-03T19:22:28.107Z,78644.84
2022-08-03T19:25:01.026Z,78645.59
2022-08-03T19:27:33.646Z,78667.28
2022-08-03T19:30:19.993Z,78676.50
2022-08-03T19:32:57.327Z,78674.66
2022-08-03T19:35:46.992Z,78667.53
2022-08-03T19:38:28.546Z,78673.00
2022-08-03T19:41:11.926Z,78664.50
2022-08-03T19:44:07.806Z,78628.31
2022-08-03T19:47:31.448Z,78658.28
2022-08-03T19:50:14.385Z,78662.63
2022-08-03T19:52:49.065Z,78656.94
2022-08-03T19:55:19.827Z,78665.72
2022-08-03T19:57:51.207Z,78670.47
2022-08-03T20:00:26.550Z,78668.50
2022-08-03T20:03:01.988Z,78626.03
2022-08-03T20:05:45.000Z,78654.47
2022-08-03T20:08:23.346Z,78656.66
2022-08-03T20:10:52.918Z,78661.34
2022-08-03T20:13:23.089Z,78667.38
2022-08-03T20:15:58.606Z,78653.16
2022-08-03T20:18:27.808Z,78640.38
2022-08-03T20:21:02.929Z,78654.16
2022-08-03T20:24:01.756Z,78640.00
2022-08-03T20:26:34.146Z,78637.38
2022-08-03T20:29:09.263Z,78567.44
2022-08-03T20:31:43.728Z,78637.53
2022-08-03T20:34:17.566Z,78615.78
2022-08-03T20:36:47.950Z,78644.56
2022-08-03T20:39:17.342Z,78645.22
2022-08-03T20:41:49.388Z,78629.72
2022-08-03T20:44:19.208Z,78654.97
2022-08-03T20:47:00.708Z,78639.00
2022-08-03T20:49:43.993Z,78644.38
2022-08-03T20:52:18.683Z,78651.63
2022-08-03T20:54:49.408Z,78616.25
2022-08-03T20:57:19.807Z,78631.81
2022-08-03T20:59:51.634Z,78642.53
2022-08-03T21:02:29.926Z,78635.53
2022-08-03T21:05:02.924Z,78640.13
2022-08-03T21:08:04.256Z,78628.16
2022-08-03T21:10:31.092Z,78643.25
2022-08-03T21:13:00.962Z,78673.47
2022-08-03T21:13:01.259Z,78660.06
2022-08-03T21:13:17.002Z,78633.78
2022-08-03T21:16:11.284Z,78636.16
2022-08-03T21:18:50.688Z,78632.16
2022-08-03T21:25:27.421Z,78623.38
2022-08-03T21:27:57.877Z,78618.56
2022-08-03T21:30:31.933Z,78595.69
2022-08-03T21:33:02.465Z,78620.88
2022-08-03T21:35:32.935Z,78621.41
2022-08-03T21:38:20.786Z,78615.19
2022-08-03T21:41:00.625Z,78614.44
2022-08-03T21:43:30.321Z,78623.19
2022-08-03T21:46:05.656Z,78625.69
2022-08-03T21:48:39.554Z,78625.88
2022-08-03T21:51:11.033Z,78628.00
2022-08-03T21:54:03.000Z,78620.06
2022-08-03T21:56:37.990Z,78604.91
2022-08-03T21:59:10.549Z,78595.94
2022-08-03T22:01:44.462Z,78629.84
2022-08-03T22:04:50.124Z,78623.41
2022-08-03T22:07:11.873Z,78626.38
2022-08-03T22:09:51.420Z,78603.09
2022-08-03T22:12:27.221Z,78624.38
2022-08-03T22:15:00.907Z,78590.31
2022-08-03T22:17:56.083Z,78604.13
2022-08-03T22:20:26.573Z,78610.66
2022-08-03T22:22:58.435Z,78617.56
2022-08-03T22:25:31.017Z,78620.00
2022-08-03T22:28:15.907Z,78624.50
2022-08-03T22:30:46.572Z,78610.38
2022-08-03T22:33:17.613Z,78602.28
2022-08-03T22:35:53.250Z,78624.63
2022-08-03T22:38:23.014Z,78625.56
2022-08-03T22:40:53.792Z,78622.22
2022-08-03T22:43:28.610Z,78623.25
2022-08-03T22:46:08.863Z,78612.91
2022-08-03T22:48:41.773Z,78609.19
2022-08-03T22:51:13.248Z,78613.28
2022-08-03T22:53:43.344Z,78595.78
2022-08-03T22:56:13.479Z,78595.88
2022-08-03T22:58:43.586Z,78599.59
2022-08-03T23:01:19.886Z,78603.00
2022-08-03T23:04:02.269Z,78597.97
2022-08-03T23:06:46.419Z,78595.13
2022-08-03T23:09:16.991Z,78616.84
2022-08-03T23:11:47.330Z,78593.44
2022-08-03T23:14:20.127Z,78609.66
2022-08-03T23:16:52.461Z,78619.31
2022-08-03T23:19:26.130Z,78619.22
2022-08-03T23:22:03.549Z,78620.44
2022-08-03T23:24:37.812Z,78603.97
2022-08-03T23:27:10.331Z,78603.13
2022-08-03T23:29:44.843Z,78611.72
2022-08-03T23:32:14.865Z,78618.38
2022-08-03T23:35:06.776Z,78619.44
2022-08-03T23:38:07.222Z,78606.41
2022-08-03T23:40:32.569Z,78618.69
2022-08-03T23:43:03.547Z,78616.28
2022-08-03T23:45:38.133Z,78626.41
2022-08-03T23:48:08.153Z,78619.44
2022-08-03T23:50:47.655Z,78637.19
2022-08-03T23:53:26.839Z,78644.75
2022-08-03T23:56:14.733Z,78642.22
2022-08-03T23:59:09.643Z,78645.75
